createdAt,value
2018-12-13T00:00:06.450Z,8.03
2018-12-13T00:02:32.733Z,8.15
2018-12-13T00:04:59.033Z,8.20
2018-12-13T00:07:25.332Z,7.97
2018-12-13T00:09:51.648Z,7.50
2018-12-13T00:12:17.938Z,9.28
2018-12-13T00:14:44.228Z,8.03
2018-12-13T00:17:10.536Z,8.33
2018-12-13T00:19:36.788Z,7.97
2018-12-13T00:22:03.297Z,7.90
2018-12-13T00:24:29.576Z,7.60
2018-12-13T00:26:55.818Z,7.92
2018-12-13T00:29:22.108Z,7.65
2018-12-13T00:31:48.364Z,8.70
2018-12-13T00:34:14.662Z,8.30
2018-12-13T00:36:40.914Z,8.78
2018-12-13T00:39:07.363Z,7.70
2018-12-13T00:41:33.622Z,9.50
2018-12-13T00:43:59.905Z,8.23
2018-12-13T00:46:26.151Z,8.65
2018-12-13T00:48:52.415Z,8.75
2018-12-13T00:51:18.706Z,7.30
2018-12-13T00:53:44.974Z,8.23
2018-12-13T00:56:11.267Z,8.93
2018-12-13T00:58:37.522Z,8.83
2018-12-13T01:01:03.786Z,8.00
2018-12-13T01:03:30.059Z,8.73
2018-12-13T01:05:56.343Z,8.63
2018-12-13T01:08:22.603Z,8.25
2018-12-13T01:10:48.900Z,8.03
2018-12-13T01:13:15.184Z,9.65
2018-12-13T01:15:42.269Z,10.03
2018-12-13T01:18:08.531Z,8.23
2018-12-13T01:20:34.800Z,8.78
2018-12-13T01:23:01.071Z,7.28
2018-12-13T01:25:27.367Z,8.63
2018-12-13T01:27:53.622Z,8.03
2018-12-13T01:30:19.879Z,9.13
2018-12-13T01:32:46.183Z,8.08
2018-12-13T01:35:12.461Z,10.00
2018-12-13T01:37:38.748Z,8.65
2018-12-13T01:40:05.139Z,9.13
2018-12-13T01:42:31.430Z,8.05
2018-12-13T01:44:57.714Z,8.30
2018-12-13T01:47:23.986Z,8.28
2018-12-13T01:49:50.250Z,7.60
2018-12-13T01:52:16.549Z,9.50
2018-12-13T01:54:42.842Z,8.95
2018-12-13T01:57:09.116Z,8.45
2018-12-13T01:59:35.384Z,8.70
2018-12-13T02:02:01.694Z,9.25
2018-12-13T02:04:27.976Z,9.13
2018-12-13T02:06:58.642Z,9.58
2018-12-13T02:09:22.551Z,8.68
2018-12-13T02:11:48.827Z,8.20
2018-12-13T02:14:15.130Z,8.58
2018-12-13T02:16:41.407Z,9.35
2018-12-13T02:19:07.699Z,9.10
2018-12-13T02:21:34.028Z,8.35
2018-12-13T02:24:00.542Z,9.35
2018-12-13T02:26:26.826Z,11.45
2018-12-13T02:28:53.117Z,8.33
2018-12-13T02:31:19.383Z,9.18
2018-12-13T02:33:45.652Z,8.95
2018-12-13T02:36:11.973Z,9.55
2018-12-13T02:38:38.229Z,9.23
2018-12-13T02:41:04.498Z,9.73
2018-12-13T02:43:30.823Z,9.13
2018-12-13T02:45:57.084Z,9.08
2018-12-13T02:48:23.383Z,10.32
2018-12-13T02:50:49.648Z,9.90
2018-12-13T02:53:15.930Z,10.93
2018-12-13T02:55:42.235Z,9.35
2018-12-13T02:58:08.496Z,9.20
2018-12-13T03:00:34.776Z,10.32
2018-12-13T03:03:01.077Z,9.48
2018-12-13T03:05:27.440Z,8.40
2018-12-13T03:07:53.715Z,9.20
2018-12-13T03:10:20.031Z,8.70
2018-12-13T03:12:46.298Z,9.45
2018-12-13T03:15:12.587Z,9.50
2018-12-13T03:17:38.868Z,9.65
2018-12-13T03:20:05.400Z,10.10
2018-12-13T03:22:31.711Z,8.73
2018-12-13T03:24:57.976Z,9.05
2018-12-13T03:27:24.368Z,9.05
2018-12-13T03:29:50.634Z,8.25
2018-12-13T03:32:16.931Z,9.30
2018-12-13T03:34:43.295Z,9.98
2018-12-13T03:37:09.582Z,9.10
2018-12-13T03:39:35.840Z,8.75
2018-12-13T03:42:02.274Z,9.65
2018-12-13T03:44:28.580Z,10.50
2018-12-13T03:46:54.843Z,33.30
2018-12-13T03:49:21.148Z,16.00
2018-12-13T03:51:47.464Z,10.35
2018-12-13T03:54:13.751Z,10.20
2018-12-13T03:56:40.011Z,9.10
2018-12-13T03:59:06.276Z,9.03
2018-12-13T04:01:32.576Z,8.60
2018-12-13T04:03:58.891Z,9.35
2018-12-13T04:06:25.288Z,8.38
2018-12-13T04:08:51.563Z,9.30
2018-12-13T04:11:17.816Z,8.85
2018-12-13T04:13:44.104Z,9.25
2018-12-13T04:16:10.364Z,9.28
2018-12-13T04:18:36.737Z,9.10
2018-12-13T04:21:03.115Z,8.80
2018-12-13T04:23:29.423Z,8.98
2018-12-13T04:25:55.764Z,9.48
2018-12-13T04:28:22.092Z,9.03
2018-12-13T04:30:48.358Z,8.60
2018-12-13T04:33:14.631Z,9.90
2018-12-13T04:35:40.937Z,8.38
2018-12-13T04:38:07.212Z,9.25
2018-12-13T04:40:33.476Z,9.13
2018-12-13T04:42:59.781Z,8.80
2018-12-13T04:45:26.056Z,8.08
2018-12-13T04:47:52.358Z,8.70
2018-12-13T04:50:18.625Z,8.40
2018-12-13T04:52:44.924Z,8.45
2018-12-13T04:55:11.274Z,8.93
2018-12-13T04:57:37.531Z,8.88
2018-12-13T05:00:05.375Z,10.32
2018-12-13T05:02:31.693Z,8.78
2018-12-13T05:04:57.987Z,9.03
2018-12-13T05:07:24.255Z,9.38
2018-12-13T05:09:50.617Z,7.92
2018-12-13T05:12:16.895Z,9.03
2018-12-13T05:14:43.167Z,8.75
2018-12-13T05:17:09.483Z,10.10
2018-12-13T05:19:35.767Z,9.40
2018-12-13T05:22:02.038Z,8.43
2018-12-13T05:24:28.373Z,9.63
2018-12-13T05:26:54.685Z,9.30
2018-12-13T05:29:20.983Z,8.98
2018-12-13T05:31:47.242Z,9.35
2018-12-13T05:34:13.508Z,9.08
2018-12-13T05:36:39.820Z,8.80
2018-12-13T05:39:06.254Z,9.45
2018-12-13T05:41:32.529Z,8.78
2018-12-13T05:43:58.821Z,8.30
2018-12-13T05:46:25.126Z,8.63
2018-12-13T05:48:51.394Z,8.98
2018-12-13T05:51:17.712Z,13.78
2018-12-13T05:53:44.002Z,13.45
2018-12-13T05:56:10.276Z,9.18
2018-12-13T05:58:36.583Z,8.65
2018-12-13T06:01:02.907Z,8.43
2018-12-13T06:03:29.168Z,9.10
2018-12-13T06:05:55.514Z,9.85
2018-12-13T06:08:21.799Z,8.95
2018-12-13T06:10:48.182Z,9.08
2018-12-13T06:13:18.232Z,10.68
2018-12-13T06:15:46.469Z,11.85
2018-12-13T06:18:12.876Z,9.33
2018-12-13T06:20:39.154Z,9.43
2018-12-13T06:23:05.433Z,9.08
2018-12-13T06:25:31.731Z,9.13
2018-12-13T06:27:58.007Z,9.48
2018-12-13T06:30:24.294Z,9.48
2018-12-13T06:32:50.652Z,10.20
2018-12-13T06:35:16.941Z,10.00
2018-12-13T06:37:43.200Z,9.30
2018-12-13T06:40:15.444Z,9.60
2018-12-13T06:42:37.821Z,9.23
2018-12-13T06:45:05.413Z,9.28
2018-12-13T06:47:31.667Z,9.93
2018-12-13T06:49:58.026Z,10.82
2018-12-13T06:52:24.484Z,9.80
2018-12-13T06:54:50.757Z,10.43
2018-12-13T06:57:17.043Z,26.25
2018-12-13T06:59:43.321Z,35.90
2018-12-13T07:02:09.648Z,11.45
2018-12-13T07:04:35.955Z,8.88
2018-12-13T07:07:02.223Z,8.95
2018-12-13T07:09:28.493Z,10.80
2018-12-13T07:11:54.801Z,9.55
2018-12-13T07:14:21.075Z,8.40
2018-12-13T07:16:47.502Z,9.90
2018-12-13T07:19:13.816Z,8.38
2018-12-13T07:21:40.095Z,8.98
2018-12-13T07:24:06.438Z,9.25
2018-12-13T07:26:32.708Z,9.43
2018-12-13T07:28:59.003Z,9.58
2018-12-13T07:31:25.258Z,9.60
2018-12-13T07:33:51.553Z,9.28
2018-12-13T07:36:17.827Z,10.10
2018-12-13T07:38:44.119Z,9.95
2018-12-13T07:41:10.434Z,9.70
2018-12-13T07:43:36.806Z,9.78
2018-12-13T07:46:03.079Z,10.05
2018-12-13T07:48:29.344Z,8.58
2018-12-13T07:50:55.655Z,10.20
2018-12-13T07:53:21.947Z,10.10
2018-12-13T07:55:48.248Z,10.85
2018-12-13T07:58:14.538Z,9.93
2018-12-13T08:00:40.827Z,9.80
2018-12-13T08:03:07.121Z,9.20
2018-12-13T08:05:33.384Z,9.23
2018-12-13T08:07:59.715Z,10.20
2018-12-13T08:10:26.018Z,10.08
2018-12-13T08:12:52.314Z,9.75
2018-12-13T08:15:18.603Z,10.80
2018-12-13T08:17:44.899Z,9.95
2018-12-13T08:20:11.283Z,9.68
2018-12-13T08:22:37.576Z,9.83
2018-12-13T08:25:04.209Z,8.85
2018-12-13T08:27:30.455Z,10.00
2018-12-13T08:29:56.739Z,9.98
2018-12-13T08:32:23.025Z,9.00
2018-12-13T08:34:49.461Z,10.60
2018-12-13T08:37:15.739Z,9.35
2018-12-13T08:39:42.039Z,8.88
2018-12-13T08:42:08.358Z,10.35
2018-12-13T08:44:34.681Z,10.35
2018-12-13T08:47:01.006Z,9.10
2018-12-13T08:49:27.324Z,9.68
2018-12-13T08:51:53.622Z,9.40
2018-12-13T08:54:19.918Z,9.80
2018-12-13T08:56:46.230Z,10.63
2018-12-13T08:59:12.555Z,10.68
2018-12-13T09:01:38.810Z,14.68
2018-12-13T09:04:05.104Z,11.50
2018-12-13T09:06:31.431Z,9.03
2018-12-13T09:08:57.719Z,10.10
2018-12-13T09:11:24.004Z,10.18
2018-12-13T09:13:50.346Z,9.75
2018-12-13T09:16:16.635Z,10.30
2018-12-13T09:18:42.911Z,8.93
2018-12-13T09:21:09.239Z,10.30
2018-12-13T09:23:35.499Z,20.92
2018-12-13T09:26:01.870Z,31.85
2018-12-13T09:28:28.211Z,46.45
2018-12-13T09:30:54.504Z,21.10
2018-12-13T09:33:20.773Z,13.25
2018-12-13T09:35:47.156Z,18.65
2018-12-13T09:38:13.508Z,19.90
2018-12-13T09:40:39.823Z,43.02
2018-12-13T09:43:06.139Z,19.80
2018-12-13T09:45:32.419Z,14.90
2018-12-13T09:47:58.692Z,18.90
2018-12-13T09:50:24.989Z,13.43
2018-12-13T09:52:51.292Z,16.75
2018-12-13T09:55:17.554Z,17.57
2018-12-13T09:57:43.846Z,15.80
2018-12-13T10:00:10.411Z,12.20
2018-12-13T10:02:36.678Z,11.68
2018-12-13T10:05:04.013Z,14.28
2018-12-13T10:07:30.278Z,17.98
2018-12-13T10:09:56.580Z,14.65
2018-12-13T10:12:22.895Z,12.23
2018-12-13T10:14:49.151Z,13.03
2018-12-13T10:17:15.448Z,12.25
2018-12-13T10:19:41.744Z,12.13
2018-12-13T10:22:11.586Z,12.25
2018-12-13T10:24:36.319Z,11.60
2018-12-13T10:27:02.645Z,11.57
2018-12-13T10:29:28.955Z,11.00
2018-12-13T10:31:55.254Z,9.63
2018-12-13T10:34:21.544Z,11.30
2018-12-13T10:36:47.834Z,10.80
2018-12-13T10:39:14.083Z,10.68
2018-12-13T10:41:40.346Z,11.05
2018-12-13T10:44:06.643Z,10.28
2018-12-13T10:46:32.935Z,10.18
2018-12-13T10:48:59.210Z,10.63
2018-12-13T10:51:25.494Z,10.03
2018-12-13T10:53:51.806Z,11.15
2018-12-13T10:56:18.084Z,10.08
2018-12-13T10:58:44.390Z,12.20
2018-12-13T11:01:16.652Z,10.55
2018-12-13T11:03:42.947Z,12.98
2018-12-13T11:06:09.285Z,47.08
2018-12-13T11:08:35.551Z,15.30
2018-12-13T11:11:01.814Z,14.05
2018-12-13T11:13:28.101Z,11.43
2018-12-13T11:15:54.425Z,11.00
2018-12-13T11:18:20.815Z,11.55
2018-12-13T11:20:47.138Z,11.88
2018-12-13T11:23:13.570Z,12.23
2018-12-13T11:25:39.895Z,11.53
2018-12-13T11:31:07.855Z,11.12
2018-12-13T11:33:34.155Z,11.50
2018-12-13T11:36:00.434Z,12.80
2018-12-13T11:38:26.699Z,10.85
2018-12-13T11:40:53.041Z,11.97
2018-12-13T11:43:19.306Z,11.53
2018-12-13T11:45:45.580Z,10.55
2018-12-13T11:48:11.859Z,11.78
2018-12-13T11:50:38.131Z,10.78
2018-12-13T11:53:04.392Z,11.08
2018-12-13T11:55:32.824Z,10.70
2018-12-13T11:57:59.218Z,12.15
2018-12-13T12:00:25.635Z,13.28
2018-12-13T12:02:51.928Z,10.70
2018-12-13T12:05:18.258Z,11.60
2018-12-13T12:07:44.521Z,12.50
2018-12-13T12:10:11.104Z,10.90
2018-12-13T12:12:37.411Z,11.25
2018-12-13T12:15:04.906Z,11.75
2018-12-13T12:17:31.903Z,12.58
2018-12-13T12:19:58.193Z,11.75
2018-12-13T12:22:24.451Z,12.07
2018-12-13T12:24:50.710Z,11.53
2018-12-13T12:27:17.016Z,11.43
2018-12-13T12:29:43.259Z,11.55
2018-12-13T12:32:09.532Z,11.12
2018-12-13T12:34:35.798Z,10.23
2018-12-13T12:37:02.070Z,10.35
2018-12-13T12:39:28.371Z,10.90
2018-12-13T12:41:54.657Z,11.33
2018-12-13T12:44:20.987Z,12.10
2018-12-13T12:46:47.305Z,12.90
2018-12-13T12:49:13.614Z,12.60
2018-12-13T12:51:39.883Z,12.30
2018-12-13T12:54:06.146Z,11.60
2018-12-13T12:56:32.475Z,12.88
2018-12-13T12:58:58.723Z,12.30
2018-12-13T13:01:25.084Z,12.18
2018-12-13T13:03:51.357Z,18.37
2018-12-13T13:06:17.714Z,42.05
2018-12-13T13:08:43.975Z,21.57
2018-12-13T13:11:10.282Z,13.80
2018-12-13T13:13:36.554Z,15.90
2018-12-13T13:16:02.895Z,16.50
2018-12-13T13:18:29.224Z,14.75
2018-12-13T13:20:55.551Z,13.72
2018-12-13T13:23:21.863Z,15.13
2018-12-13T13:25:48.165Z,17.12
2018-12-13T13:28:14.470Z,28.75
2018-12-13T13:30:40.782Z,64.45
2018-12-13T13:33:07.100Z,22.07
2018-12-13T13:35:33.618Z,15.03
2018-12-13T13:37:59.977Z,14.93
2018-12-13T13:40:26.278Z,15.68
2018-12-13T13:42:52.544Z,14.03
2018-12-13T13:45:19.295Z,16.32
2018-12-13T13:47:45.567Z,15.95
2018-12-13T13:50:11.989Z,16.35
2018-12-13T13:52:39.366Z,16.75
2018-12-13T13:55:05.787Z,17.00
2018-12-13T13:57:32.121Z,16.12
2018-12-13T13:59:58.478Z,15.60
2018-12-13T14:02:24.735Z,14.00
2018-12-13T14:04:51.765Z,15.75
2018-12-13T14:07:18.085Z,14.30
2018-12-13T14:09:44.348Z,14.95
2018-12-13T14:12:10.617Z,16.05
2018-12-13T14:14:36.947Z,15.35
2018-12-13T14:17:03.272Z,15.05
2018-12-13T14:19:29.582Z,14.78
2018-12-13T14:21:55.891Z,14.38
2018-12-13T14:24:22.160Z,14.28
2018-12-13T14:26:48.475Z,14.68
2018-12-13T14:29:14.780Z,14.05
2018-12-13T14:31:41.080Z,14.05
2018-12-13T14:34:07.407Z,14.87
2018-12-13T14:36:33.698Z,15.30
2018-12-13T14:38:59.964Z,14.60
2018-12-13T14:41:26.279Z,13.40
2018-12-13T14:43:52.647Z,13.85
2018-12-13T14:46:18.952Z,13.80
2018-12-13T14:48:45.246Z,15.68
2018-12-13T14:51:11.556Z,13.93
2018-12-13T14:53:37.972Z,13.72
2018-12-13T14:56:04.300Z,13.18
2018-12-13T14:58:30.580Z,13.88
2018-12-13T15:00:56.910Z,13.22
2018-12-13T15:03:23.171Z,14.50
2018-12-13T15:05:49.460Z,14.10
2018-12-13T15:08:15.784Z,14.15
2018-12-13T15:10:42.065Z,15.18
2018-12-13T15:13:08.455Z,14.23
2018-12-13T15:15:34.779Z,14.05
2018-12-13T15:18:01.050Z,12.63
2018-12-13T15:20:27.399Z,13.48
2018-12-13T15:22:53.706Z,13.45
2018-12-13T15:25:20.041Z,15.08
2018-12-13T15:27:46.333Z,14.63
2018-12-13T15:30:12.718Z,14.98
2018-12-13T15:32:39.004Z,14.20
2018-12-13T15:35:05.332Z,14.25
2018-12-13T15:37:31.681Z,15.55
2018-12-13T15:39:58.030Z,14.13
2018-12-13T15:42:24.353Z,14.10
2018-12-13T15:44:50.770Z,15.20
2018-12-13T15:47:17.047Z,14.95
2018-12-13T15:49:43.769Z,14.13
2018-12-13T15:52:10.184Z,13.95
2018-12-13T15:54:36.482Z,14.83
2018-12-13T15:57:02.867Z,14.58
2018-12-13T15:59:29.159Z,62.88
2018-12-13T16:01:55.523Z,41.83
2018-12-13T16:04:21.801Z,35.28
2018-12-13T16:06:48.113Z,38.67
2018-12-13T16:09:14.507Z,34.13
2018-12-13T16:11:40.796Z,25.88
2018-12-13T16:14:07.107Z,17.17
2018-12-13T16:16:33.419Z,27.65
2018-12-13T16:18:59.701Z,23.65
2018-12-13T16:21:26.048Z,23.52
2018-12-13T16:23:52.380Z,34.83
2018-12-13T16:26:18.663Z,31.37
2018-12-13T16:28:45.031Z,33.80
2018-12-13T16:31:11.319Z,25.30
2018-12-13T16:33:37.602Z,40.35
2018-12-13T16:36:03.893Z,31.70
2018-12-13T16:38:30.191Z,49.75
2018-12-13T16:40:56.503Z,36.95
2018-12-13T16:43:22.835Z,43.48
2018-12-13T16:45:49.130Z,31.12
2018-12-13T16:48:15.592Z,27.22
2018-12-13T16:50:41.884Z,20.82
2018-12-13T16:53:08.172Z,17.85
2018-12-13T16:55:34.439Z,17.15
2018-12-13T16:58:00.716Z,16.25
2018-12-13T17:00:27.128Z,16.75
2018-12-13T17:02:53.415Z,17.67
2018-12-13T17:05:19.676Z,17.12
2018-12-13T17:07:46.036Z,16.07
2018-12-13T17:10:16.788Z,17.23
2018-12-13T17:12:40.825Z,16.65
2018-12-13T17:15:07.278Z,15.55
2018-12-13T17:17:33.592Z,17.27
2018-12-13T17:19:59.893Z,16.95
2018-12-13T17:22:26.215Z,15.25
2018-12-13T17:24:52.564Z,14.90
2018-12-13T17:27:18.876Z,15.78
2018-12-13T17:29:45.207Z,16.05
2018-12-13T17:32:11.519Z,15.65
2018-12-13T17:34:37.805Z,15.55
2018-12-13T17:37:05.092Z,15.55
2018-12-13T17:39:31.382Z,15.90
2018-12-13T17:41:57.712Z,16.40
2018-12-13T17:44:24.143Z,14.83
2018-12-13T17:46:50.426Z,15.95
2018-12-13T17:49:16.740Z,15.53
2018-12-13T17:51:43.294Z,16.52
2018-12-13T17:54:09.598Z,14.30
2018-12-13T17:56:36.223Z,16.35
2018-12-13T17:59:02.516Z,15.43
2018-12-13T18:01:29.162Z,16.10
2018-12-13T18:03:55.483Z,17.17
2018-12-13T18:06:21.774Z,16.45
2018-12-13T18:08:48.065Z,17.10
2018-12-13T18:11:14.812Z,18.02
2018-12-13T18:13:41.503Z,14.93
2018-12-13T18:16:07.783Z,16.45
2018-12-13T18:18:34.320Z,16.57
2018-12-13T18:21:00.687Z,15.95
2018-12-13T18:23:26.997Z,15.03
2018-12-13T18:25:53.264Z,17.23
2018-12-13T18:28:19.564Z,15.45
2018-12-13T18:30:45.876Z,15.83
2018-12-13T18:33:12.282Z,16.77
2018-12-13T18:35:38.562Z,16.12
2018-12-13T18:38:05.028Z,17.02
2018-12-13T18:40:35.639Z,15.68
2018-12-13T18:42:59.731Z,16.57
2018-12-13T18:45:28.138Z,16.80
2018-12-13T18:47:54.425Z,17.55
2018-12-13T18:50:20.761Z,16.00
2018-12-13T18:52:47.163Z,16.50
2018-12-13T18:55:13.633Z,16.05
2018-12-13T18:57:39.902Z,16.27
2018-12-13T19:00:06.760Z,16.57
2018-12-13T19:02:33.088Z,16.90
2018-12-13T19:04:59.557Z,15.55
2018-12-13T19:07:26.152Z,16.82
2018-12-13T19:09:52.863Z,17.60
2018-12-13T19:12:19.163Z,16.90
2018-12-13T19:14:45.620Z,15.60
2018-12-13T19:17:12.247Z,16.10
2018-12-13T19:19:38.624Z,16.70
2018-12-13T19:22:05.037Z,15.98
2018-12-13T19:24:31.347Z,16.65
2018-12-13T19:26:58.054Z,15.98
2018-12-13T19:29:24.588Z,17.92
2018-12-13T19:31:50.912Z,16.80
2018-12-13T19:34:17.482Z,15.98
2018-12-13T19:36:44.088Z,15.88
2018-12-13T19:39:10.503Z,16.80
2018-12-13T19:41:37.496Z,15.60
2018-12-13T19:44:04.214Z,16.25
2018-12-13T19:46:30.613Z,16.62
2018-12-13T19:48:56.948Z,16.27
2018-12-13T19:51:23.371Z,16.35
2018-12-13T19:53:49.679Z,15.95
2018-12-13T19:56:15.988Z,15.95
2018-12-13T19:58:42.323Z,16.82
2018-12-13T20:01:08.654Z,15.00
2018-12-13T20:03:34.955Z,15.90
2018-12-13T20:06:01.305Z,17.05
2018-12-13T20:08:27.670Z,17.15
2018-12-13T20:10:54.837Z,17.80
2018-12-13T20:13:21.524Z,20.30
2018-12-13T20:15:47.941Z,19.50
2018-12-13T20:18:14.338Z,19.27
2018-12-13T20:20:40.634Z,18.80
2018-12-13T20:23:06.927Z,18.48
2018-12-13T20:25:33.220Z,18.15
2018-12-13T20:27:59.571Z,19.35
2018-12-13T20:30:25.860Z,19.67
2018-12-13T20:32:52.166Z,19.87
2018-12-13T20:35:18.876Z,20.05
2018-12-13T20:37:45.166Z,19.35
2018-12-13T20:40:11.450Z,19.32
2018-12-13T20:42:37.723Z,19.73
2018-12-13T20:45:05.819Z,18.23
2018-12-13T20:47:32.127Z,17.70
2018-12-13T20:49:58.438Z,19.12
2018-12-13T20:52:24.725Z,18.32
2018-12-13T20:54:51.023Z,18.40
2018-12-13T20:57:17.336Z,16.32
2018-12-13T20:59:43.615Z,17.98
2018-12-13T21:02:09.924Z,17.73
2018-12-13T21:04:36.190Z,16.30
2018-12-13T21:07:08.579Z,18.73
2018-12-13T21:09:34.882Z,17.65
2018-12-13T21:12:01.179Z,16.93
2018-12-13T21:14:27.518Z,17.32
2018-12-13T21:16:59.829Z,16.95
2018-12-13T21:19:22.129Z,16.50
2018-12-13T21:21:48.431Z,16.25
2018-12-13T21:24:14.716Z,15.03
2018-12-13T21:26:40.983Z,14.90
2018-12-13T21:29:07.290Z,14.87
2018-12-13T21:31:33.572Z,14.95
2018-12-13T21:33:59.842Z,17.23
2018-12-13T21:36:26.162Z,15.65
2018-12-13T21:38:52.416Z,16.50
2018-12-13T21:41:18.699Z,16.20
2018-12-13T21:43:44.965Z,16.12
2018-12-13T21:46:11.227Z,14.65
2018-12-13T21:48:37.522Z,14.85
2018-12-13T21:51:03.826Z,15.83
2018-12-13T21:53:30.788Z,13.68
2018-12-13T21:55:57.201Z,15.53
2018-12-13T21:58:23.508Z,15.25
2018-12-13T22:00:49.812Z,13.58
2018-12-13T22:03:16.098Z,13.80
2018-12-13T22:05:42.375Z,14.35
2018-12-13T22:08:08.687Z,14.38
2018-12-13T22:10:34.954Z,13.43
2018-12-13T22:13:01.257Z,13.72
2018-12-13T22:15:27.604Z,15.65
2018-12-13T22:17:53.877Z,14.65
2018-12-13T22:20:20.204Z,13.80
2018-12-13T22:22:46.628Z,14.73
2018-12-13T22:25:12.899Z,15.23
2018-12-13T22:27:39.222Z,14.47
2018-12-13T22:30:06.048Z,14.63
2018-12-13T22:32:32.378Z,15.35
2018-12-13T22:34:58.794Z,14.53
2018-12-13T22:37:25.136Z,15.18
2018-12-13T22:39:51.444Z,15.55
2018-12-13T22:42:17.749Z,14.07
2018-12-13T22:44:44.053Z,14.75
2018-12-13T22:47:10.336Z,12.88
2018-12-13T22:49:36.687Z,15.60
2018-12-13T22:52:03.034Z,15.00
2018-12-13T22:54:29.297Z,14.35
2018-12-13T22:56:55.566Z,15.90
2018-12-13T22:59:21.810Z,15.35
2018-12-13T23:01:48.138Z,14.85
2018-12-13T23:04:14.414Z,15.13
2018-12-13T23:06:40.677Z,15.05
2018-12-13T23:09:07.128Z,14.90
2018-12-13T23:11:33.676Z,14.75
2018-12-13T23:13:59.990Z,15.15
2018-12-13T23:16:26.334Z,14.18
2018-12-13T23:18:52.608Z,14.80
2018-12-13T23:21:18.968Z,15.40
2018-12-13T23:23:45.271Z,15.23
2018-12-13T23:26:11.582Z,14.70
2018-12-13T23:28:37.920Z,15.80
2018-12-13T23:31:04.182Z,15.70
2018-12-13T23:33:30.484Z,14.50
2018-12-13T23:35:56.824Z,15.90
2018-12-13T23:38:23.160Z,15.75
2018-12-13T23:40:49.445Z,14.03
2018-12-13T23:43:15.774Z,17.27
2018-12-13T23:45:42.077Z,16.57
2018-12-13T23:48:08.379Z,15.03
2018-12-13T23:50:34.719Z,15.40
2018-12-13T23:53:00.995Z,14.58
2018-12-13T23:55:27.325Z,14.98
2018-12-13T23:57:53.609Z,15.93
